createdAt,value
2018-03-11T00:02:26.139Z,10.00
2018-03-11T00:04:53.855Z,7.77
2018-03-11T00:07:21.530Z,9.17
2018-03-11T00:09:49.179Z,9.37
2018-03-11T00:12:16.891Z,8.03
2018-03-11T00:14:44.790Z,9.17
2018-03-11T00:17:12.447Z,9.17
2018-03-11T00:19:40.106Z,8.63
2018-03-11T00:22:07.902Z,8.70
2018-03-11T00:24:43.690Z,9.47
2018-03-11T00:27:11.397Z,7.93
2018-03-11T00:29:39.054Z,9.30
2018-03-11T00:32:06.741Z,8.60
2018-03-11T00:34:34.389Z,9.20
2018-03-11T00:37:02.069Z,8.37
2018-03-11T00:39:29.793Z,9.27
2018-03-11T00:41:57.421Z,9.43
2018-03-11T00:44:25.077Z,8.43
2018-03-11T00:47:05.828Z,8.53
2018-03-11T00:49:33.475Z,7.50
2018-03-11T00:52:01.150Z,7.63
2018-03-11T00:54:28.837Z,8.27
2018-03-11T00:56:56.494Z,9.90
2018-03-11T00:59:24.136Z,9.23
2018-03-11T01:01:51.834Z,9.87
2018-03-11T01:04:19.409Z,9.63
2018-03-11T01:06:47.903Z,9.47
2018-03-11T01:09:16.352Z,10.20
2018-03-11T01:11:44.006Z,9.27
2018-03-11T01:14:11.668Z,9.43
2018-03-11T01:19:33.590Z,8.77
2018-03-11T01:22:01.299Z,9.47
2018-03-11T01:24:28.978Z,8.23
2018-03-11T01:27:10.620Z,8.00
2018-03-11T01:29:38.318Z,9.23
2018-03-11T01:32:05.977Z,8.30
2018-03-11T01:34:33.719Z,9.93
2018-03-11T01:37:01.376Z,9.50
2018-03-11T01:39:29.037Z,9.23
2018-03-11T01:41:56.659Z,8.93
2018-03-11T01:44:25.076Z,8.33
2018-03-11T01:46:52.908Z,8.80
2018-03-11T01:49:20.593Z,8.10
2018-03-11T01:51:48.305Z,9.00
2018-03-11T01:54:16.030Z,7.97
2018-03-11T01:56:44.770Z,8.87
2018-03-11T01:59:13.129Z,8.00
2018-03-11T02:01:41.999Z,7.90
2018-03-11T02:04:10.972Z,8.33
2018-03-11T02:06:39.468Z,7.30
2018-03-11T02:09:07.168Z,8.50
2018-03-11T02:11:35.725Z,8.70
2018-03-11T02:14:03.479Z,8.50
2018-03-11T02:16:32.089Z,7.60
2018-03-11T02:18:59.657Z,8.63
2018-03-11T02:21:27.233Z,7.67
2018-03-11T02:23:54.899Z,8.37
2018-03-11T02:26:22.632Z,8.60
2018-03-11T02:28:50.310Z,9.20
2018-03-11T02:31:19.257Z,8.67
2018-03-11T02:33:46.991Z,8.50
2018-03-11T02:36:14.747Z,9.67
2018-03-11T02:38:42.502Z,8.67
2018-03-11T02:41:10.309Z,8.37
2018-03-11T02:46:11.130Z,9.50
2018-03-11T02:48:39.680Z,9.43
2018-03-11T02:51:08.193Z,10.57
2018-03-11T02:53:35.877Z,9.63
2018-03-11T02:56:03.605Z,10.70
2018-03-11T02:58:32.363Z,10.80
2018-03-11T03:01:00.054Z,11.30
2018-03-11T03:03:27.806Z,10.60
2018-03-11T03:05:59.793Z,10.57
2018-03-11T03:08:50.752Z,12.03
2018-03-11T03:11:18.466Z,10.70
2018-03-11T03:13:46.875Z,10.53
2018-03-11T03:16:15.312Z,10.63
2018-03-11T03:18:43.297Z,11.27
2018-03-11T03:21:11.026Z,10.60
2018-03-11T03:23:44.588Z,10.63
2018-03-11T03:26:12.982Z,11.67
2018-03-11T03:28:40.743Z,10.70
2018-03-11T03:31:09.238Z,10.77
2018-03-11T03:33:36.935Z,10.70
2018-03-11T03:36:04.608Z,10.03
2018-03-11T03:38:32.396Z,11.23
2018-03-11T03:41:00.168Z,10.13
2018-03-11T03:43:29.329Z,11.60
2018-03-11T03:46:01.849Z,11.53
2018-03-11T03:48:29.790Z,11.83
2018-03-11T03:50:57.601Z,10.43
2018-03-11T03:53:26.386Z,9.97
2018-03-11T03:55:54.062Z,11.73
2018-03-11T03:58:21.740Z,12.03
2018-03-11T04:00:50.295Z,11.77
2018-03-11T04:03:17.986Z,11.63
2018-03-11T04:05:53.751Z,12.00
2018-03-11T04:08:22.120Z,12.00
2018-03-11T04:10:57.516Z,12.03
2018-03-11T04:13:25.093Z,11.93
2018-03-11T04:15:52.693Z,11.60
2018-03-11T04:18:20.270Z,10.70
2018-03-11T04:20:48.934Z,10.07
2018-03-11T04:23:17.782Z,11.37
2018-03-11T04:25:53.910Z,14.23
2018-03-11T04:28:21.516Z,12.97
2018-03-11T04:30:49.860Z,13.10
2018-03-11T04:33:17.529Z,12.43
2018-03-11T04:35:45.201Z,12.80
2018-03-11T04:38:12.883Z,13.53
2018-03-11T04:40:41.345Z,12.13
2018-03-11T04:43:09.011Z,13.93
2018-03-11T04:45:36.713Z,13.20
2018-03-11T04:48:04.387Z,13.53
2018-03-11T04:50:32.045Z,13.83
2018-03-11T04:52:59.793Z,14.23
2018-03-11T04:55:29.356Z,13.53
2018-03-11T04:57:57.044Z,13.80
2018-03-11T05:00:24.723Z,14.43
2018-03-11T05:02:52.381Z,16.00
2018-03-11T05:05:20.050Z,14.93
2018-03-11T05:07:48.497Z,14.13
2018-03-11T05:10:16.193Z,14.20
2018-03-11T05:12:44.672Z,13.33
2018-03-11T05:15:26.023Z,15.17
2018-03-11T05:17:53.764Z,15.13
2018-03-11T05:20:21.473Z,13.30
2018-03-11T05:22:49.133Z,15.00
2018-03-11T05:25:16.827Z,15.20
2018-03-11T05:27:44.516Z,14.70
2018-03-11T05:30:12.199Z,13.20
2018-03-11T05:32:39.891Z,15.53
2018-03-11T05:35:07.591Z,15.33
2018-03-11T05:37:35.284Z,15.20
2018-03-11T05:40:03.000Z,14.47
2018-03-11T05:42:30.657Z,15.20
2018-03-11T05:45:18.732Z,15.37
2018-03-11T05:47:46.404Z,17.30
2018-03-11T05:50:14.068Z,17.37
2018-03-11T05:52:41.734Z,17.20
2018-03-11T05:55:09.466Z,18.63
2018-03-11T05:57:37.950Z,17.17
2018-03-11T06:00:05.632Z,18.27
2018-03-11T06:02:33.311Z,17.57
2018-03-11T06:05:00.996Z,19.07
2018-03-11T06:07:28.772Z,18.20
2018-03-11T06:09:56.446Z,19.63
2018-03-11T06:12:24.123Z,19.60
2018-03-11T06:14:57.785Z,20.10
2018-03-11T06:17:25.432Z,21.30
2018-03-11T06:19:53.074Z,23.20
2018-03-11T06:22:20.769Z,24.03
2018-03-11T06:24:48.411Z,19.27
2018-03-11T06:27:16.155Z,20.10
2018-03-11T06:29:43.843Z,20.00
2018-03-11T06:32:11.721Z,20.47
2018-03-11T06:34:39.417Z,20.37
2018-03-11T06:37:07.098Z,21.13
2018-03-11T06:39:34.753Z,23.47
2018-03-11T06:42:02.413Z,21.70
2018-03-11T06:44:30.156Z,21.23
2018-03-11T06:46:57.816Z,20.37
2018-03-11T06:49:25.487Z,20.37
2018-03-11T06:51:53.253Z,20.30
2018-03-11T06:54:20.931Z,21.13
2018-03-11T06:56:48.611Z,19.23
2018-03-11T06:59:17.052Z,19.80
2018-03-11T07:01:44.721Z,19.00
2018-03-11T07:04:12.392Z,20.50
2018-03-11T07:06:42.102Z,20.10
2018-03-11T07:09:09.771Z,21.97
2018-03-11T07:11:37.433Z,21.33
2018-03-11T07:14:05.096Z,21.67
2018-03-11T07:16:32.759Z,21.83
2018-03-11T07:19:00.443Z,21.77
2018-03-11T07:21:28.116Z,20.90
2018-03-11T07:23:55.775Z,21.23
2018-03-11T07:26:24.220Z,21.13
2018-03-11T07:28:51.885Z,20.27
2018-03-11T07:31:19.461Z,19.33
2018-03-11T07:33:47.149Z,19.23
2018-03-11T07:36:17.738Z,20.33
2018-03-11T07:38:45.416Z,20.73
2018-03-11T07:41:13.087Z,20.27
2018-03-11T07:43:40.777Z,19.97
2018-03-11T07:46:08.458Z,20.47
2018-03-11T07:48:36.116Z,21.07
2018-03-11T07:51:03.775Z,20.03
2018-03-11T07:53:31.469Z,20.47
2018-03-11T07:55:59.132Z,20.07
2018-03-11T07:58:26.785Z,19.27
2018-03-11T08:00:54.487Z,19.80
2018-03-11T08:03:22.167Z,18.30
2018-03-11T08:05:55.817Z,19.30
2018-03-11T08:08:23.485Z,18.67
2018-03-11T08:10:51.155Z,19.07
2018-03-11T08:13:18.826Z,16.67
2018-03-11T08:15:46.482Z,18.60
2018-03-11T08:18:14.300Z,18.37
2018-03-11T08:20:42.783Z,17.37
2018-03-11T08:23:10.439Z,17.33
2018-03-11T08:25:40.519Z,17.60
2018-03-11T08:28:08.132Z,17.70
2018-03-11T08:30:36.578Z,18.13
2018-03-11T08:33:04.280Z,18.47
2018-03-11T08:35:36.803Z,18.27
2018-03-11T08:38:04.515Z,18.60
2018-03-11T08:40:32.206Z,18.13
2018-03-11T08:42:59.882Z,17.10
2018-03-11T08:45:27.529Z,18.17
2018-03-11T08:47:55.139Z,17.90
2018-03-11T08:50:22.808Z,18.20
2018-03-11T08:52:50.495Z,17.50
2018-03-11T08:55:18.126Z,16.33
2018-03-11T08:57:45.709Z,16.47
2018-03-11T09:00:13.294Z,17.20
2018-03-11T09:02:40.885Z,16.60
2018-03-11T09:05:08.638Z,17.30
2018-03-11T09:07:36.290Z,16.63
2018-03-11T09:10:03.904Z,16.77
2018-03-11T09:12:31.579Z,16.27
2018-03-11T09:14:59.234Z,16.60
2018-03-11T09:17:26.876Z,17.27
2018-03-11T09:19:55.226Z,17.47
2018-03-11T09:22:22.940Z,16.60
2018-03-11T09:24:50.606Z,17.50
2018-03-11T09:27:18.301Z,17.50
2018-03-11T09:29:45.982Z,18.30
2018-03-11T09:32:13.629Z,18.37
2018-03-11T09:34:41.551Z,17.87
2018-03-11T09:37:09.227Z,17.93
2018-03-11T09:39:36.901Z,17.80
2018-03-11T09:42:04.581Z,18.07
2018-03-11T09:44:32.291Z,17.93
2018-03-11T09:46:59.959Z,18.90
2018-03-11T09:49:27.630Z,19.23
2018-03-11T09:51:55.294Z,18.47
2018-03-11T09:54:22.980Z,18.27
2018-03-11T09:56:50.854Z,18.73
2018-03-11T09:59:18.527Z,18.17
2018-03-11T10:01:47.023Z,17.93
2018-03-11T10:04:14.886Z,17.47
2018-03-11T10:06:42.527Z,17.70
2018-03-11T10:09:11.007Z,17.17
2018-03-11T10:11:38.792Z,18.43
2018-03-11T10:14:07.335Z,18.77
2018-03-11T10:16:35.054Z,17.57
2018-03-11T10:19:02.722Z,17.57
2018-03-11T10:21:30.401Z,17.93
2018-03-11T10:23:58.109Z,17.33
2018-03-11T10:26:25.918Z,17.60
2018-03-11T10:28:53.631Z,16.80
2018-03-11T10:31:21.312Z,17.37
2018-03-11T10:33:49.765Z,16.27
2018-03-11T10:36:17.433Z,17.20
2018-03-11T10:38:45.092Z,15.30
2018-03-11T10:41:13.241Z,15.33
2018-03-11T10:43:40.901Z,15.93
2018-03-11T10:46:08.612Z,16.10
2018-03-11T10:48:36.290Z,15.40
2018-03-11T10:51:04.741Z,15.17
2018-03-11T10:53:32.415Z,13.43
2018-03-11T10:56:00.197Z,13.93
2018-03-11T10:58:28.643Z,13.40
2018-03-11T11:00:56.351Z,12.80
2018-03-11T11:03:28.745Z,12.87
2018-03-11T11:05:59.560Z,12.37
2018-03-11T11:08:28.056Z,12.23
2018-03-11T11:10:56.730Z,12.83
2018-03-11T11:13:24.397Z,12.87
2018-03-11T11:16:17.993Z,13.00
2018-03-11T11:18:45.664Z,13.40
2018-03-11T11:21:13.339Z,14.23
2018-03-11T11:23:41.033Z,13.73
2018-03-11T11:26:08.724Z,13.50
2018-03-11T11:28:37.224Z,14.43
2018-03-11T11:31:04.965Z,12.93
2018-03-11T11:33:38.222Z,14.33
2018-03-11T11:36:05.950Z,14.17
2018-03-11T11:38:36.982Z,13.67
2018-03-11T11:41:04.767Z,13.70
2018-03-11T11:43:32.502Z,12.87
2018-03-11T11:46:00.275Z,12.80
2018-03-11T11:48:30.010Z,13.50
2018-03-11T11:50:58.356Z,11.37
2018-03-11T11:53:26.720Z,12.47
2018-03-11T11:55:54.990Z,11.73
2018-03-11T11:58:22.693Z,11.50
2018-03-11T12:00:50.455Z,11.83
2018-03-11T12:03:19.111Z,11.50
2018-03-11T12:05:51.639Z,11.00
2018-03-11T12:08:19.402Z,10.43
2018-03-11T12:10:46.996Z,10.93
2018-03-11T12:13:14.578Z,10.30
2018-03-11T12:15:42.161Z,10.33
2018-03-11T12:18:09.812Z,10.20
2018-03-11T12:20:39.551Z,10.67
2018-03-11T12:23:07.285Z,9.83
2018-03-11T12:25:36.905Z,9.63
2018-03-11T12:28:05.985Z,9.10
2018-03-11T12:30:33.635Z,8.80
2018-03-11T12:33:01.290Z,8.93
2018-03-11T12:35:33.840Z,8.20
2018-03-11T12:38:01.522Z,8.40
2018-03-11T12:40:34.884Z,8.60
2018-03-11T12:43:03.904Z,8.00
2018-03-11T12:45:31.535Z,8.23
2018-03-11T12:47:59.175Z,8.50
2018-03-11T12:50:26.855Z,7.83
2018-03-11T12:52:55.302Z,8.87
2018-03-11T12:55:22.897Z,8.33
2018-03-11T12:57:50.552Z,8.87
2018-03-11T13:00:22.557Z,8.87
2018-03-11T13:02:55.329Z,8.73
2018-03-11T13:05:30.296Z,8.83
2018-03-11T13:07:57.897Z,8.60
2018-03-11T13:10:26.247Z,8.50
2018-03-11T13:12:53.902Z,7.93
2018-03-11T13:15:21.516Z,7.57
2018-03-11T13:17:49.183Z,7.43
2018-03-11T13:20:28.572Z,4.40
2018-03-11T13:22:56.239Z,2.50
2018-03-11T13:25:23.943Z,2.57
2018-03-11T13:28:04.026Z,2.10
2018-03-11T13:30:31.995Z,2.10
2018-03-11T13:33:12.436Z,2.10
2018-03-11T13:35:40.114Z,1.90
2018-03-11T13:38:19.488Z,1.87
2018-03-11T13:40:47.154Z,2.00
2018-03-11T13:43:14.837Z,1.80
2018-03-11T13:45:54.923Z,1.77
2018-03-11T13:48:23.531Z,1.67
2018-03-11T13:50:51.572Z,1.47
2018-03-11T13:53:30.956Z,1.53
2018-03-11T13:55:58.902Z,1.53
2018-03-11T13:58:41.874Z,1.30
2018-03-11T14:01:10.014Z,1.50
2018-03-11T14:03:37.623Z,1.40
2018-03-11T14:06:07.020Z,1.40
2018-03-11T14:08:35.449Z,1.60
2018-03-11T14:11:03.165Z,1.57
2018-03-11T14:13:31.599Z,1.43
2018-03-11T14:15:59.255Z,1.30
2018-03-11T14:18:26.844Z,1.87
2018-03-11T14:20:54.557Z,1.20
2018-03-11T14:23:22.168Z,1.57
2018-03-11T14:25:51.062Z,1.47
2018-03-11T14:28:18.765Z,1.73
2018-03-11T14:30:47.151Z,1.67
2018-03-11T14:33:14.772Z,1.70
2018-03-11T14:35:42.449Z,1.43
2018-03-11T14:38:10.096Z,1.60
2018-03-11T14:40:37.769Z,1.60
2018-03-11T14:43:05.424Z,1.77
2018-03-11T14:45:33.167Z,1.70
2018-03-11T14:48:00.780Z,1.80
2018-03-11T14:50:29.209Z,1.90
2018-03-11T14:52:56.837Z,1.90
2018-03-11T14:55:27.902Z,1.33
2018-03-11T14:57:55.597Z,1.67
2018-03-11T15:00:23.249Z,1.87
2018-03-11T15:02:50.913Z,1.83
2018-03-11T15:05:18.578Z,1.90
2018-03-11T15:07:46.228Z,2.00
2018-03-11T15:10:13.894Z,1.73
2018-03-11T15:12:41.564Z,1.80
2018-03-11T15:15:09.206Z,2.00
2018-03-11T15:17:36.897Z,1.80
2018-03-11T15:20:05.077Z,1.70
2018-03-11T15:22:32.679Z,1.90
2018-03-11T15:25:19.988Z,1.97
2018-03-11T15:27:47.840Z,1.60
2018-03-11T15:30:15.465Z,1.97
2018-03-11T15:32:43.180Z,1.70
2018-03-11T15:35:10.783Z,1.80
2018-03-11T15:37:38.462Z,1.70
2018-03-11T15:40:06.180Z,1.80
2018-03-11T15:42:34.761Z,1.90
2018-03-11T15:45:03.292Z,2.00
2018-03-11T15:47:32.373Z,2.23
2018-03-11T15:50:00.071Z,2.43
2018-03-11T15:52:27.844Z,2.47
2018-03-11T15:55:06.266Z,2.23
2018-03-11T15:57:36.804Z,2.30
2018-03-11T16:00:06.711Z,2.50
2018-03-11T16:02:34.369Z,2.60
2018-03-11T16:05:01.967Z,2.50
2018-03-11T16:07:30.332Z,2.37
2018-03-11T16:09:57.935Z,2.40
2018-03-11T16:12:25.563Z,2.10
2018-03-11T16:15:03.022Z,2.20
2018-03-11T16:17:30.740Z,2.57
2018-03-11T16:19:58.682Z,2.30
2018-03-11T16:22:26.395Z,2.50
2018-03-11T16:24:53.994Z,2.30
2018-03-11T16:27:21.761Z,2.30
2018-03-11T16:29:50.305Z,2.40
2018-03-11T16:32:18.938Z,2.53
2018-03-11T16:34:50.295Z,2.40
2018-03-11T16:37:18.186Z,2.60
2018-03-11T16:39:46.260Z,2.77
2018-03-11T16:42:28.357Z,3.00
2018-03-11T16:44:56.070Z,3.37
2018-03-11T16:47:23.729Z,3.50
2018-03-11T16:49:51.349Z,4.13
2018-03-11T16:52:19.229Z,4.13
2018-03-11T16:54:46.852Z,4.13
2018-03-11T16:57:15.547Z,3.80
2018-03-11T16:59:44.995Z,3.57
2018-03-11T17:02:12.778Z,3.57
2018-03-11T17:04:40.418Z,3.00
2018-03-11T17:07:09.080Z,3.10
2018-03-11T17:09:36.753Z,2.80
2018-03-11T17:12:04.479Z,2.90
2018-03-11T17:14:34.176Z,3.27
2018-03-11T17:17:03.240Z,2.80
2018-03-11T17:19:30.974Z,2.80
2018-03-11T17:21:58.900Z,2.90
2018-03-11T17:24:27.419Z,2.60
2018-03-11T17:26:55.911Z,4.20
2018-03-11T17:29:24.391Z,7.03
2018-03-11T17:31:52.113Z,4.60
2018-03-11T17:34:19.892Z,4.80
2018-03-11T17:36:47.634Z,4.40
2018-03-11T17:39:15.386Z,3.60
2018-03-11T17:41:43.135Z,3.80
2018-03-11T17:44:10.887Z,4.47
2018-03-11T17:46:43.079Z,4.20
2018-03-11T17:49:10.889Z,3.33
2018-03-11T17:51:38.597Z,3.80
2018-03-11T17:54:06.322Z,3.90
2018-03-11T17:56:34.102Z,3.20
2018-03-11T17:59:01.896Z,3.40
2018-03-11T18:01:29.735Z,3.60
2018-03-11T18:03:57.412Z,4.00
2018-03-11T18:06:25.967Z,3.20
2018-03-11T18:08:53.714Z,3.70
2018-03-11T18:11:21.490Z,4.00
2018-03-11T18:13:49.269Z,4.00
2018-03-11T18:16:20.614Z,4.20
2018-03-11T18:18:51.094Z,3.90
2018-03-11T18:21:18.888Z,4.80
2018-03-11T18:23:47.286Z,5.27
2018-03-11T18:26:15.032Z,5.97
2018-03-11T18:28:44.448Z,5.60
2018-03-11T18:31:12.114Z,7.03
2018-03-11T18:33:40.839Z,8.23
2018-03-11T18:36:08.583Z,7.53
2018-03-11T18:38:36.335Z,10.33
2018-03-11T18:41:04.125Z,11.43
2018-03-11T18:43:31.811Z,13.13
2018-03-11T18:49:05.390Z,12.00
2018-03-11T18:51:33.132Z,12.10
2018-03-11T18:54:00.892Z,11.23
2018-03-11T18:56:37.290Z,9.33
2018-03-11T18:59:05.001Z,8.93
2018-03-11T19:01:32.742Z,8.07
2018-03-11T19:04:01.140Z,9.93
2018-03-11T19:06:28.914Z,10.93
2018-03-11T19:08:57.377Z,12.13
2018-03-11T19:11:25.083Z,14.80
2018-03-11T19:13:52.864Z,14.47
2018-03-11T19:16:20.738Z,13.87
2018-03-11T19:18:48.476Z,11.90
2018-03-11T19:21:16.276Z,13.40
2018-03-11T19:23:43.996Z,16.17
2018-03-11T19:26:37.486Z,17.00
2018-03-11T19:29:05.240Z,14.50
2018-03-11T19:31:33.023Z,12.07
2018-03-11T19:34:00.742Z,10.53
2018-03-11T19:36:28.496Z,9.50
2018-03-11T19:38:57.221Z,8.40
2018-03-11T19:41:24.951Z,8.33
2018-03-11T19:43:52.667Z,7.80
2018-03-11T19:46:20.364Z,7.97
2018-03-11T19:48:48.096Z,7.43
2018-03-11T19:51:15.831Z,6.80
2018-03-11T19:53:43.627Z,6.77
2018-03-11T19:56:14.936Z,6.77
2018-03-11T19:58:42.690Z,7.23
2018-03-11T20:01:11.248Z,6.97
2018-03-11T20:03:38.981Z,7.10
2018-03-11T20:06:06.632Z,7.23
2018-03-11T20:08:34.415Z,7.10
2018-03-11T20:11:02.326Z,6.83
2018-03-11T20:13:30.087Z,7.30
2018-03-11T20:15:58.488Z,7.73
2018-03-11T20:18:26.214Z,8.03
2018-03-11T20:20:53.974Z,7.47
2018-03-11T20:23:22.075Z,8.57
2018-03-11T20:25:51.955Z,7.60
2018-03-11T20:28:19.704Z,8.30
2018-03-11T20:30:47.519Z,9.00
2018-03-11T20:33:16.043Z,8.53
2018-03-11T20:35:43.757Z,8.63
2018-03-11T20:38:11.468Z,8.97
2018-03-11T20:40:39.118Z,10.00
2018-03-11T20:43:06.922Z,11.23
2018-03-11T20:45:34.743Z,13.47
2018-03-11T20:48:02.481Z,12.77
2018-03-11T20:50:30.409Z,14.47
2018-03-11T20:52:58.158Z,21.03
2018-03-11T20:55:37.964Z,27.30
2018-03-11T20:58:05.719Z,21.90
2018-03-11T21:00:33.481Z,19.43
2018-03-11T21:03:01.173Z,16.47
2018-03-11T21:05:29.658Z,14.83
2018-03-11T21:07:57.355Z,12.90
2018-03-11T21:10:25.105Z,10.67
2018-03-11T21:12:52.882Z,12.60
2018-03-11T21:15:20.650Z,12.63
2018-03-11T21:17:48.439Z,11.47
2018-03-11T21:20:16.188Z,9.50
2018-03-11T21:22:44.040Z,9.13
2018-03-11T21:25:17.664Z,10.13
2018-03-11T21:27:45.667Z,10.37
2018-03-11T21:30:13.443Z,11.20
2018-03-11T21:32:41.163Z,11.83
2018-03-11T21:35:09.068Z,10.90
2018-03-11T21:37:36.886Z,9.40
2018-03-11T21:40:04.648Z,10.00
2018-03-11T21:42:32.459Z,9.43
2018-03-11T21:45:09.897Z,8.93
2018-03-11T21:47:37.663Z,10.20
2018-03-11T21:50:05.416Z,12.30
2018-03-11T21:52:33.174Z,14.63
2018-03-11T21:55:00.957Z,15.80
2018-03-11T21:57:28.695Z,12.90
2018-03-11T21:59:56.658Z,11.87
2018-03-11T22:02:24.313Z,27.43
2018-03-11T22:04:51.955Z,37.30
2018-03-11T22:07:19.769Z,40.07
2018-03-11T22:09:47.375Z,23.80
2018-03-11T22:12:15.179Z,15.40
2018-03-11T22:14:42.829Z,13.50
2018-03-11T22:17:10.581Z,14.20
2018-03-11T22:19:38.319Z,16.23
2018-03-11T22:22:06.110Z,12.17
2018-03-11T22:24:33.744Z,38.83
2018-03-11T22:27:01.497Z,17.13
2018-03-11T22:29:29.260Z,13.03
2018-03-11T22:31:57.029Z,18.53
2018-03-11T22:34:24.774Z,17.00
2018-03-11T22:36:54.528Z,14.47
2018-03-11T22:39:22.476Z,11.93
2018-03-11T22:41:51.009Z,12.57
2018-03-11T22:44:18.748Z,12.23
2018-03-11T22:46:46.394Z,13.50
2018-03-11T22:49:14.091Z,13.13
2018-03-11T22:51:41.765Z,13.57
2018-03-11T22:54:09.427Z,13.03
2018-03-11T22:56:37.133Z,13.97
2018-03-11T22:59:05.677Z,14.13
2018-03-11T23:01:33.361Z,12.10
2018-03-11T23:04:01.084Z,14.70
2018-03-11T23:06:35.973Z,11.57
2018-03-11T23:09:04.533Z,12.70
2018-03-11T23:11:32.286Z,13.63
2018-03-11T23:14:00.103Z,14.30
2018-03-11T23:16:28.600Z,12.37
2018-03-11T23:19:08.087Z,12.47
2018-03-11T23:21:35.846Z,11.20
2018-03-11T23:24:03.634Z,11.40
2018-03-11T23:26:31.894Z,10.67
2018-03-11T23:28:59.555Z,11.03
2018-03-11T23:31:27.217Z,10.07
2018-03-11T23:33:54.990Z,9.97
2018-03-11T23:36:22.756Z,10.10
2018-03-11T23:38:50.511Z,10.60
2018-03-11T23:41:18.244Z,11.00
2018-03-11T23:43:45.980Z,11.10
2018-03-11T23:46:28.063Z,10.03
2018-03-11T23:48:55.827Z,9.77
2018-03-11T23:51:23.719Z,9.10
2018-03-11T23:53:51.435Z,8.73
2018-03-11T23:56:19.225Z,9.43
2018-03-11T23:58:47.085Z,9.20
